Time;durP1;ratioP1;P1;durP2;ratioP2;P2;SDS_P1;SDS_P2;PMS_P1;PMS_P2;Temp;Humidity;BMP_temperature;BMP_pressure;BME280_temperature;BME280_humidity;BME280_pressure;Samples;Min_cycle;Max_cycle;Signal;HPM_P1;HPM_P2
2022/11/11 00:00:15;;;;;;;8.77;7.83;;;9.20;99.60;;;;;;5030603;28;20553;-85
2022/11/11 00:02:40;;;;;;;10.00;8.70;;;9.20;98.40;;;;;;5031103;28;20220;-87
2022/11/11 00:05:06;;;;;;;9.07;8.17;;;9.10;99.60;;;;;;5030418;28;20187;-87
2022/11/11 00:07:32;;;;;;;10.50;9.40;;;9.10;99.90;;;;;;5021515;28;20249;-84
2022/11/11 00:09:57;;;;;;;10.80;8.80;;;9.00;97.50;;;;;;5020404;28;20226;-87
2022/11/11 00:12:23;;;;;;;9.33;8.50;;;8.80;97.00;;;;;;5040818;28;20631;-87
2022/11/11 00:14:49;;;;;;;9.20;8.30;;;8.40;99.00;;;;;;5036147;28;20200;-86
2022/11/11 00:25:28;;;;;;;8.43;7.63;;;8.70;99.90;;;;;;5037138;28;20306;-88
2022/11/11 00:27:53;;;;;;;8.63;7.83;;;8.80;99.90;;;;;;5047536;28;20714;-87
2022/11/11 00:30:20;;;;;;;10.00;8.43;;;8.80;99.50;;;;;;5025819;28;20218;-86
2022/11/11 00:32:45;;;;;;;9.37;8.47;;;8.70;99.90;;;;;;5032122;28;20545;-87
2022/11/11 00:38:06;;;;;;;9.40;8.50;;;8.60;99.90;;;;;;5039948;28;20265;-87
2022/11/11 00:40:31;;;;;;;9.57;8.23;;;8.60;99.90;;;;;;5039331;28;20197;-85
2022/11/11 00:42:57;;;;;;;9.73;8.73;;;8.70;99.90;;;;;;5046281;28;20186;-88
2022/11/11 00:45:23;;;;;;;11.30;8.13;;;8.70;99.90;;;;;;5017930;28;20201;-87
2022/11/11 00:53:19;;;;;;;8.60;7.80;;;8.60;99.90;;;;;;5031375;28;20614;-86
2022/11/11 00:55:45;;;;;;;7.97;7.17;;;8.50;99.90;;;;;;5010762;28;20190;-87
2022/11/11 00:58:11;;;;;;;8.90;8.07;;;8.50;99.90;;;;;;5042282;28;20205;-93
2022/11/11 01:00:36;;;;;;;8.87;7.97;;;8.50;99.90;;;;;;5060287;28;20186;-90
2022/11/11 01:03:02;;;;;;;8.63;7.73;;;8.60;99.90;;;;;;5048276;28;20196;-86
2022/11/11 01:05:28;;;;;;;8.43;7.63;;;8.60;99.90;;;;;;5043061;28;20200;-84
2022/11/11 01:07:54;;;;;;;8.50;7.70;;;8.50;99.90;;;;;;5029014;28;20204;-85
2022/11/11 01:13:13;;;;;;;7.67;6.97;;;8.60;99.90;;;;;;5035955;28;20188;-88
2022/11/11 01:15:41;;;;;;;8.87;7.97;;;8.70;99.90;;;;;;5031096;28;20186;-84
2022/11/11 01:18:08;;;;;;;10.53;7.57;;;8.50;99.60;;;;;;5031596;28;20181;-90
2022/11/11 01:20:34;;;;;;;11.03;8.20;;;8.10;99.90;;;;;;5028718;28;20283;-87
2022/11/11 01:22:59;;;;;;;8.30;7.50;;;8.20;99.90;;;;;;5017448;28;20200;-85
2022/11/11 01:25:25;;;;;;;10.70;8.23;;;8.20;99.90;;;;;;5028899;28;20193;-90
2022/11/11 01:27:50;;;;;;;9.63;8.17;;;8.20;99.90;;;;;;5033719;28;20217;-87
2022/11/11 01:30:16;;;;;;;8.50;7.80;;;8.20;99.90;;;;;;5024573;28;20270;-87
2022/11/11 01:32:42;;;;;;;9.10;8.30;;;8.30;99.90;;;;;;5027842;28;20261;-85
2022/11/11 01:35:07;;;;;;;9.00;8.10;;;8.40;99.90;;;;;;5028476;28;20191;-85
2022/11/11 01:37:34;;;;;;;8.90;8.17;;;8.50;99.90;;;;;;5028796;28;20214;-88
2022/11/11 01:40:00;;;;;;;10.33;8.27;;;8.60;99.90;;;;;;5033393;28;20331;-86
2022/11/11 01:42:25;;;;;;;9.03;8.23;;;8.60;99.90;;;;;;5036070;28;20212;-88
2022/11/11 01:44:51;;;;;;;10.10;9.10;;;8.70;99.90;;;;;;5011523;28;20186;-87
2022/11/11 01:47:18;;;;;;;11.63;10.53;;;8.70;99.90;;;;;;5014272;28;20235;-88
2022/11/11 01:50:00;;;;;;;11.23;10.07;;;8.70;99.90;;;;;;5031667;28;20604;-85
2022/11/11 01:52:32;;;;;;;10.70;9.50;;;8.80;99.90;;;;;;5012160;28;20546;-88
2022/11/11 01:55:00;;;;;;;10.83;9.27;;;8.80;99.90;;;;;;5032362;28;20279;-86
2022/11/11 01:57:37;;;;;;;9.83;8.90;;;8.80;99.90;;;;;;5025024;28;20209;-85
2022/11/11 02:00:08;;;;;;;8.70;8.00;;;8.60;99.90;;;;;;5039157;28;20201;-85
2022/11/11 02:02:41;;;;;;;8.93;8.10;;;8.50;99.90;;;;;;5039014;28;20217;-87
2022/11/11 02:07:58;;;;;;;8.77;7.97;;;8.50;99.90;;;;;;5028317;28;20228;-86
2022/11/11 02:10:25;;;;;;;8.10;7.40;;;8.50;99.90;;;;;;5028641;28;20206;-86
2022/11/11 02:15:36;;;;;;;8.77;7.97;;;8.50;99.90;;;;;;5032910;28;20291;-86
2022/11/11 02:18:02;;;;;;;9.00;8.30;;;8.50;99.90;;;;;;5034773;28;20239;-87
2022/11/11 02:20:33;;;;;;;8.67;7.87;;;8.50;99.90;;;;;;5028564;28;20250;-86
2022/11/11 02:23:25;;;;;;;8.90;8.03;;;8.40;99.90;;;;;;5032400;28;20196;-86
2022/11/11 02:25:53;;;;;;;8.30;7.57;;;8.20;99.90;;;;;;5032386;28;20224;-86
2022/11/11 02:28:20;;;;;;;8.07;7.37;;;8.30;99.90;;;;;;5026356;28;20201;-86
2022/11/11 02:30:46;;;;;;;7.33;6.73;;;8.30;99.90;;;;;;5044902;28;20457;-89
2022/11/11 02:33:11;;;;;;;8.37;7.57;;;8.30;99.90;;;;;;5053334;28;20200;-88
2022/11/11 02:35:44;;;;;;;8.10;7.40;;;8.00;99.90;;;;;;5052522;28;20204;-89
2022/11/11 02:38:13;;;;;;;8.43;7.60;;;8.00;99.90;;;;;;5035737;28;20185;-85
2022/11/11 02:43:30;;;;;;;8.53;7.70;;;8.20;99.90;;;;;;5034004;28;20718;-87
2022/11/11 02:45:56;;;;;;;8.33;7.53;;;8.30;99.90;;;;;;5029401;28;20205;-85
2022/11/11 02:48:23;;;;;;;8.00;7.30;;;8.40;99.90;;;;;;5025920;28;20215;-88
2022/11/11 02:50:49;;;;;;;7.87;7.17;;;8.40;99.90;;;;;;5019242;28;20205;-84
2022/11/11 02:53:15;;;;;;;7.87;7.07;;;8.40;99.90;;;;;;5025254;28;20190;-84
2022/11/11 02:55:40;;;;;;;7.07;6.57;;;8.40;99.90;;;;;;5032203;28;20194;-88
2022/11/11 02:58:06;;;;;;;7.13;6.63;;;8.30;99.90;;;;;;5033518;28;20196;-85
2022/11/11 03:00:32;;;;;;;6.70;6.20;;;8.30;99.90;;;;;;5029410;28;20306;-88
2022/11/11 03:02:57;;;;;;;6.77;6.17;;;8.30;99.90;;;;;;5028240;28;20248;-84
2022/11/11 03:05:23;;;;;;;6.47;5.97;;;8.40;99.90;;;;;;5031750;28;20244;-87
2022/11/11 03:07:48;;;;;;;6.67;6.17;;;8.40;99.90;;;;;;5023981;28;20214;-85
2022/11/11 03:10:15;;;;;;;6.33;5.90;;;8.40;99.90;;;;;;5027052;28;20206;-89
2022/11/11 03:12:40;;;;;;;7.13;6.43;;;8.40;99.90;;;;;;5029478;28;20180;-85
2022/11/11 03:15:06;;;;;;;6.97;6.37;;;8.30;99.90;;;;;;5017304;28;20208;-85
2022/11/11 03:17:38;;;;;;;7.17;6.57;;;8.20;99.90;;;;;;5027897;28;20273;-84
2022/11/11 03:23:14;;;;;;;7.33;6.63;;;8.20;99.70;;;;;;5039872;28;20218;-89
2022/11/11 03:25:44;;;;;;;6.40;5.87;;;8.00;99.10;;;;;;5036414;28;20200;-88
2022/11/11 03:28:11;;;;;;;7.13;6.43;;;7.80;99.90;;;;;;5035047;28;20192;-88
2022/11/11 03:30:38;;;;;;;7.70;7.00;;;7.90;99.90;;;;;;5034886;28;20636;-85
2022/11/11 03:33:04;;;;;;;8.50;7.77;;;8.00;99.90;;;;;;5029614;28;20265;-88
2022/11/11 03:35:30;;;;;;;8.63;7.83;;;8.10;99.90;;;;;;5033791;28;20220;-88
2022/11/11 03:40:44;;;;;;;8.30;7.53;;;8.20;99.90;;;;;;5031912;28;20196;-88
2022/11/11 03:43:10;;;;;;;8.40;7.60;;;8.10;99.90;;;;;;5031458;28;20191;-86
2022/11/11 03:45:36;;;;;;;9.87;7.70;;;8.10;99.90;;;;;;5025670;28;20209;-86
2022/11/11 03:48:01;;;;;;;8.03;7.23;;;8.00;99.90;;;;;;5037517;28;20181;-86
2022/11/11 03:50:27;;;;;;;7.03;6.43;;;8.10;99.90;;;;;;5022044;28;20570;-88
2022/11/11 03:52:53;;;;;;;7.33;6.73;;;8.10;99.90;;;;;;5025381;28;20186;-89
2022/11/11 03:55:18;;;;;;;7.33;6.63;;;8.10;99.90;;;;;;5014034;28;20540;-87
2022/11/11 03:57:45;;;;;;;6.50;5.90;;;8.10;99.90;;;;;;5028472;28;20291;-86
2022/11/11 04:00:13;;;;;;;7.07;6.47;;;8.00;99.90;;;;;;5029219;28;20323;-87
2022/11/11 04:11:05;;;;;;;6.57;5.97;;;8.30;99.90;;;;;;5023973;28;20231;-86
2022/11/11 04:16:16;;;;;;;6.33;5.83;;;8.30;99.90;;;;;;5027916;28;20263;-86
2022/11/11 04:21:44;;;;;;;6.53;5.93;;;8.10;99.90;;;;;;5026079;28;20238;-85
2022/11/11 04:27:01;;;;;;;6.93;6.03;;;8.20;99.90;;;;;;5023227;28;20285;-85
2022/11/11 04:29:27;;;;;;;6.03;5.57;;;8.30;99.90;;;;;;5028615;28;20192;-86
2022/11/11 04:34:44;;;;;;;6.37;5.87;;;8.30;99.90;;;;;;5054872;28;20180;-89
2022/11/11 04:37:10;;;;;;;6.53;6.00;;;8.20;99.90;;;;;;5041129;28;20204;-85
2022/11/11 04:42:21;;;;;;;6.30;5.80;;;8.10;99.90;;;;;;5032649;28;20192;-85
2022/11/11 04:47:31;;;;;;;15.13;7.00;;;8.10;99.90;;;;;;5026826;28;20212;-87
2022/11/11 04:49:57;;;;;;;13.70;7.47;;;8.10;99.90;;;;;;5033332;28;20205;-88
2022/11/11 04:52:25;;;;;;;9.70;8.53;;;7.70;99.90;;;;;;5030985;28;20212;-87
2022/11/11 04:57:44;;;;;;;8.20;7.50;;;7.10;99.90;;;;;;5023330;28;20212;-87
2022/11/11 05:00:13;;;;;;;7.40;6.67;;;7.20;99.90;;;;;;5024897;28;20190;-85
2022/11/11 05:05:24;;;;;;;6.63;6.03;;;7.40;99.90;;;;;;5031145;28;20290;-85
2022/11/11 05:10:34;;;;;;;7.03;6.43;;;7.60;99.90;;;;;;5024340;28;20607;-85
2022/11/11 05:21:22;;;;;;;7.80;7.10;;;7.40;99.90;;;;;;5029879;28;20195;-85
2022/11/11 05:26:44;;;;;;;16.60;6.57;;;7.40;99.90;;;;;;4999843;28;20758;-90
2022/11/11 05:29:09;;;;;;;8.57;6.47;;;7.40;99.90;;;;;;5032041;28;20185;-85
2022/11/11 05:31:35;;;;;;;13.93;6.50;;;7.30;99.90;;;;;;5030443;28;20208;-86
2022/11/11 05:34:00;;;;;;;6.97;5.97;;;7.20;99.90;;;;;;5033029;28;20260;-86
2022/11/11 05:36:26;;;;;;;15.27;6.37;;;7.30;99.90;;;;;;5031685;28;20205;-85
2022/11/11 05:38:52;;;;;;;14.90;6.63;;;7.30;99.90;;;;;;5032099;28;20185;-86
2022/11/11 05:41:17;;;;;;;10.23;7.17;;;7.20;99.90;;;;;;5034871;28;20183;-86
2022/11/11 05:43:43;;;;;;;7.00;6.40;;;7.00;99.90;;;;;;5032336;28;20173;-88
2022/11/11 05:46:08;;;;;;;10.83;6.07;;;6.90;99.90;;;;;;5036040;28;20358;-87
2022/11/11 05:48:34;;;;;;;8.53;6.03;;;7.00;99.90;;;;;;5037377;28;20186;-85
2022/11/11 05:51:00;;;;;;;9.27;6.43;;;7.20;99.90;;;;;;5032476;28;20999;-85
2022/11/11 05:53:27;;;;;;;13.07;6.73;;;7.20;99.90;;;;;;5029184;28;20681;-85
2022/11/11 05:55:52;;;;;;;16.90;7.00;;;7.00;99.90;;;;;;5028532;28;20252;-85
2022/11/11 05:58:19;;;;;;;16.77;6.63;;;6.80;99.90;;;;;;5030466;28;20549;-85
2022/11/11 06:00:45;;;;;;;10.63;6.17;;;6.80;99.90;;;;;;5030028;28;20576;-86
2022/11/11 06:03:11;;;;;;;16.30;6.33;;;6.60;99.90;;;;;;5032190;28;20205;-85
2022/11/11 06:05:37;;;;;;;15.90;6.93;;;6.60;99.90;;;;;;5028708;28;21483;-84
2022/11/11 06:08:03;;;;;;;8.53;5.80;;;6.70;99.90;;;;;;5014788;28;20210;-84
2022/11/11 06:10:29;;;;;;;20.47;7.07;;;6.60;99.90;;;;;;5027631;28;20220;-85
2022/11/11 06:13:03;;;;;;;6.00;5.50;;;6.60;99.90;;;;;;5034571;28;20578;-85
2022/11/11 06:15:31;;;;;;;25.73;6.37;;;6.60;99.90;;;;;;5033430;28;20242;-85
2022/11/11 06:17:57;;;;;;;15.47;6.53;;;6.50;99.90;;;;;;5028987;28;20178;-84
2022/11/11 06:20:23;;;;;;;27.33;6.50;;;6.70;99.90;;;;;;5032397;28;20560;-86
2022/11/11 06:22:57;;;;;;;14.57;5.77;;;6.70;99.90;;;;;;5032923;28;20564;-87
2022/11/11 06:28:12;;;;;;;6.17;5.67;;;6.70;99.90;;;;;;5032758;28;20308;-84
2022/11/11 06:30:38;;;;;;;10.30;5.77;;;6.90;99.90;;;;;;5028014;28;20198;-85
2022/11/11 06:33:06;;;;;;;6.33;5.80;;;6.80;99.90;;;;;;5029839;28;20184;-87
2022/11/11 06:35:33;;;;;;;6.20;5.43;;;6.70;99.90;;;;;;5029545;28;20177;-85
2022/11/11 06:37:59;;;;;;;5.67;5.17;;;6.80;99.90;;;;;;5021224;28;20180;-85
2022/11/11 06:40:24;;;;;;;11.93;5.43;;;6.90;99.90;;;;;;5028850;28;20189;-85
2022/11/11 06:42:50;;;;;;;6.93;6.30;;;6.80;99.90;;;;;;5036725;28;20227;-84
2022/11/11 06:45:16;;;;;;;15.20;6.60;;;6.70;99.90;;;;;;5032068;28;20649;-85
2022/11/11 06:47:42;;;;;;;18.20;6.97;;;6.60;99.90;;;;;;5030567;28;20212;-87
2022/11/11 06:50:08;;;;;;;9.80;6.37;;;6.60;99.90;;;;;;5020475;28;20295;-85
2022/11/11 06:52:34;;;;;;;8.77;5.97;;;6.50;99.90;;;;;;5009220;28;20545;-88
2022/11/11 06:54:59;;;;;;;7.07;6.37;;;6.60;99.90;;;;;;5035318;28;20197;-86
2022/11/11 06:57:25;;;;;;;25.03;7.57;;;6.80;99.90;;;;;;5023578;28;20208;-86
2022/11/11 06:59:50;;;;;;;5.73;5.30;;;6.80;99.90;;;;;;5026456;28;20182;-86
2022/11/11 07:02:17;;;;;;;15.50;6.13;;;6.80;99.90;;;;;;5029211;28;20679;-89
2022/11/11 07:04:42;;;;;;;7.20;6.00;;;6.70;99.90;;;;;;5026919;28;20188;-87
2022/11/11 07:07:08;;;;;;;6.67;5.67;;;6.80;99.90;;;;;;5026744;28;20205;-87
2022/11/11 07:09:34;;;;;;;16.60;6.47;;;6.80;99.90;;;;;;5021275;28;20189;-87
2022/11/11 07:12:00;;;;;;;7.40;5.50;;;6.80;99.90;;;;;;5026336;28;20209;-94
2022/11/11 07:14:26;;;;;;;6.10;5.50;;;6.80;99.90;;;;;;5052825;28;20173;-90
2022/11/11 07:16:52;;;;;;;9.30;5.67;;;6.90;99.90;;;;;;5045852;28;20200;-90
2022/11/11 07:19:17;;;;;;;7.07;6.37;;;7.00;99.90;;;;;;5038005;28;20225;-92
2022/11/11 07:21:43;;;;;;;7.10;6.43;;;7.10;99.90;;;;;;5031716;28;20185;-88
2022/11/11 07:24:08;;;;;;;6.87;6.17;;;7.30;99.90;;;;;;5021101;28;20280;-85
2022/11/11 07:26:34;;;;;;;7.00;6.30;;;7.40;99.90;;;;;;5009532;28;20708;-86
2022/11/11 07:29:00;;;;;;;7.13;6.53;;;7.60;99.90;;;;;;5022942;28;20275;-87
2022/11/11 07:31:25;;;;;;;7.43;6.50;;;7.70;99.90;;;;;;5030718;28;20236;-86
2022/11/11 07:33:51;;;;;;;7.30;6.60;;;7.80;99.90;;;;;;5025346;28;20180;-87
2022/11/11 07:36:16;;;;;;;7.23;6.67;;;7.90;99.90;;;;;;5033300;28;20205;-87
2022/11/11 07:38:42;;;;;;;7.03;6.43;;;8.00;99.90;;;;;;5029876;28;20240;-87
2022/11/11 07:41:08;;;;;;;9.17;7.33;;;8.00;99.90;;;;;;5033851;28;20260;-88
2022/11/11 07:43:33;;;;;;;21.60;8.33;;;8.00;99.90;;;;;;5026991;28;20197;-90
2022/11/11 07:45:59;;;;;;;8.10;7.37;;;7.70;99.90;;;;;;5031566;28;20334;-87
2022/11/11 07:48:25;;;;;;;8.17;7.37;;;7.50;99.90;;;;;;5020819;28;20189;-88
2022/11/11 07:50:53;;;;;;;9.13;7.37;;;7.60;99.90;;;;;;5009037;28;20745;-89
2022/11/11 07:53:19;;;;;;;7.60;6.90;;;7.70;99.90;;;;;;5031522;28;20180;-86
2022/11/11 07:55:45;;;;;;;6.83;6.27;;;7.80;99.90;;;;;;5031856;28;20189;-87
2022/11/11 07:58:11;;;;;;;5.97;5.47;;;7.90;99.90;;;;;;5035293;28;20599;-87
2022/11/11 08:00:37;;;;;;;6.23;5.73;;;7.90;99.90;;;;;;5023372;28;20272;-87
2022/11/11 08:03:03;;;;;;;5.97;5.47;;;8.00;99.90;;;;;;5016762;28;20727;-86
2022/11/11 08:05:28;;;;;;;6.00;5.50;;;8.10;99.90;;;;;;5009275;28;20220;-88
2022/11/11 08:07:54;;;;;;;6.73;6.03;;;8.00;99.90;;;;;;5025328;28;20754;-86
2022/11/11 08:10:20;;;;;;;7.63;6.93;;;8.10;99.90;;;;;;5022415;28;20208;-86
2022/11/11 08:15:36;;;;;;;7.13;6.43;;;8.00;99.90;;;;;;5032055;28;20668;-86
2022/11/11 08:18:02;;;;;;;5.83;5.33;;;7.90;99.90;;;;;;5013685;28;20185;-86
2022/11/11 08:20:28;;;;;;;5.33;4.93;;;7.90;99.90;;;;;;5031756;28;20744;-86
2022/11/11 08:22:56;;;;;;;8.67;5.90;;;8.00;99.90;;;;;;5028736;28;20684;-85
2022/11/11 08:25:23;;;;;;;6.97;5.30;;;7.90;99.90;;;;;;5022582;28;20276;-86
2022/11/11 08:27:49;;;;;;;4.80;4.40;;;7.80;99.90;;;;;;5035368;28;20213;-86
2022/11/11 08:30:14;;;;;;;7.17;4.73;;;7.70;99.90;;;;;;5037276;28;20219;-86
2022/11/11 08:32:40;;;;;;;4.40;4.00;;;7.50;99.90;;;;;;5040060;28;20338;-87
2022/11/11 08:35:06;;;;;;;4.80;4.40;;;7.50;99.90;;;;;;5042859;28;20183;-86
2022/11/11 08:37:32;;;;;;;5.07;4.57;;;7.60;99.90;;;;;;5044658;28;20205;-86
2022/11/11 08:39:57;;;;;;;8.50;4.93;;;7.50;99.90;;;;;;5046398;28;20192;-87
2022/11/11 08:42:23;;;;;;;5.07;4.67;;;7.50;99.90;;;;;;5034587;28;20188;-86
2022/11/11 08:44:50;;;;;;;5.43;4.93;;;7.60;99.90;;;;;;5035761;28;20186;-86
2022/11/11 08:47:16;;;;;;;5.33;4.93;;;7.90;99.90;;;;;;5037844;28;20197;-86
2022/11/11 08:49:42;;;;;;;5.13;4.63;;;7.90;99.90;;;;;;5044008;28;20243;-88
2022/11/11 08:52:07;;;;;;;5.33;4.83;;;8.10;99.90;;;;;;5030903;28;20209;-87
2022/11/11 08:54:33;;;;;;;6.37;5.87;;;8.00;99.90;;;;;;5032866;28;20247;-86
2022/11/11 08:56:59;;;;;;;7.17;6.47;;;8.00;99.90;;;;;;5042422;28;20708;-88
2022/11/11 08:59:25;;;;;;;8.70;7.90;;;8.00;99.90;;;;;;5041645;28;20181;-89
2022/11/11 09:01:50;;;;;;;7.97;7.20;;;7.70;99.90;;;;;;5037617;28;20191;-87
2022/11/11 09:04:16;;;;;;;7.57;6.77;;;7.80;99.90;;;;;;5030188;28;20197;-86
2022/11/11 09:06:44;;;;;;;8.07;7.37;;;7.90;99.90;;;;;;5024730;28;20395;-87
2022/11/11 09:09:10;;;;;;;12.20;10.10;;;8.10;99.90;;;;;;5038110;28;20223;-86
2022/11/11 09:11:36;;;;;;;8.17;7.37;;;8.20;99.90;;;;;;5039061;28;20213;-85
2022/11/11 09:14:02;;;;;;;7.00;6.43;;;8.10;99.90;;;;;;5041680;28;20197;-86
2022/11/11 09:16:27;;;;;;;7.17;6.57;;;8.00;99.90;;;;;;5036638;28;20205;-87
2022/11/11 09:18:53;;;;;;;8.00;7.40;;;7.80;99.90;;;;;;5039404;28;20181;-85
2022/11/11 09:21:19;;;;;;;7.57;6.40;;;8.00;99.90;;;;;;5040307;28;20193;-85
2022/11/11 09:23:44;;;;;;;8.23;7.43;;;8.10;99.90;;;;;;5046608;28;20534;-86
2022/11/11 09:26:10;;;;;;;6.87;6.37;;;8.30;99.90;;;;;;5019516;28;20265;-86
2022/11/11 09:28:36;;;;;;;7.63;7.03;;;8.40;99.90;;;;;;5045302;28;20192;-85
2022/11/11 09:31:02;;;;;;;8.70;7.90;;;8.40;99.90;;;;;;5037149;28;20299;-86
2022/11/11 09:33:28;;;;;;;6.80;6.30;;;8.60;99.90;;;;;;5038415;28;20268;-85
2022/11/11 09:35:53;;;;;;;9.77;8.97;;;8.70;99.90;;;;;;5024363;28;20212;-90
2022/11/11 09:38:19;;;;;;;8.30;7.60;;;8.80;99.90;;;;;;5013669;28;20211;-87
2022/11/11 09:40:53;;;;;;;8.00;7.33;;;8.70;99.90;;;;;;5036041;28;20644;-88
2022/11/11 09:43:52;;;;;;;10.10;7.70;;;8.60;99.90;;;;;;5016309;28;20530;-88
2022/11/11 09:46:24;;;;;;;10.30;9.40;;;8.30;99.90;;;;;;5031872;28;20573;-86
2022/11/11 09:49:16;;;;;;;8.80;8.10;;;8.20;99.90;;;;;;5042415;28;20200;-86
2022/11/11 09:51:47;;;;;;;8.60;7.90;;;8.10;99.90;;;;;;5047339;28;20216;-86
2022/11/11 09:54:18;;;;;;;10.53;9.67;;;8.30;99.90;;;;;;5041339;28;20296;-86
2022/11/11 09:56:44;;;;;;;10.90;9.83;;;8.50;99.90;;;;;;5054071;28;20200;-90
2022/11/11 09:59:24;;;;;;;11.07;9.43;;;8.50;99.90;;;;;;5053944;28;20188;-91
2022/11/11 10:01:54;;;;;;;10.33;9.33;;;8.10;99.90;;;;;;5047424;28;20200;-87
2022/11/11 10:04:23;;;;;;;9.37;8.57;;;8.20;99.90;;;;;;5042486;28;20192;-87
2022/11/11 10:06:52;;;;;;;10.33;9.43;;;8.50;99.90;;;;;;5015689;28;20244;-86
2022/11/11 10:09:36;;;;;;;10.97;10.03;;;8.60;99.90;;;;;;5033628;28;20205;-89
2022/11/11 10:12:09;;;;;;;10.80;9.77;;;8.70;99.90;;;;;;5033623;28;20297;-86
2022/11/11 10:14:41;;;;;;;9.40;8.60;;;8.90;99.90;;;;;;5027100;28;20181;-86
2022/11/11 10:17:32;;;;;;;9.13;8.30;;;9.00;99.90;;;;;;5029297;28;20200;-85
2022/11/11 10:19:58;;;;;;;9.63;8.70;;;9.20;99.90;;;;;;5029888;28;20638;-85
2022/11/11 10:22:35;;;;;;;10.10;9.13;;;9.10;99.90;;;;;;5024622;28;20226;-85
2022/11/11 10:25:13;;;;;;;9.73;8.83;;;8.90;99.90;;;;;;5036105;28;20197;-86
2022/11/11 10:27:42;;;;;;;9.93;9.00;;;8.70;99.90;;;;;;5037996;28;20319;-88
2022/11/11 10:30:18;;;;;;;9.43;8.43;;;8.80;99.90;;;;;;5029408;28;20697;-86
2022/11/11 10:32:48;;;;;;;9.27;8.47;;;8.80;99.90;;;;;;5024533;28;20549;-86
2022/11/11 10:35:18;;;;;;;8.97;8.10;;;9.00;99.90;;;;;;5023540;28;20185;-88
2022/11/11 10:37:44;;;;;;;8.50;7.80;;;9.10;99.90;;;;;;5029470;28;20252;-86
2022/11/11 10:40:21;;;;;;;10.83;9.83;;;9.20;99.90;;;;;;5035365;28;20204;-87
2022/11/11 10:42:47;;;;;;;9.97;8.97;;;9.20;99.90;;;;;;5012325;28;20209;-87
2022/11/11 10:45:27;;;;;;;9.07;8.27;;;9.10;99.90;;;;;;5029819;28;20191;-90
2022/11/11 10:47:59;;;;;;;9.10;8.00;;;9.20;99.90;;;;;;5028110;28;20259;-88
2022/11/11 10:50:38;;;;;;;10.00;9.20;;;9.20;99.90;;;;;;5032855;28;20203;-87
2022/11/11 10:53:12;;;;;;;9.77;8.87;;;9.30;99.90;;;;;;5026179;28;20182;-87
2022/11/11 10:55:52;;;;;;;10.23;9.33;;;9.30;99.90;;;;;;5036278;28;20187;-87
2022/11/11 10:58:18;;;;;;;9.43;8.50;;;9.40;99.90;;;;;;5025809;28;20178;-86
2022/11/11 11:00:46;;;;;;;11.37;8.90;;;9.30;99.90;;;;;;5035589;28;20247;-89
2022/11/11 11:03:35;;;;;;;9.63;8.73;;;9.00;99.90;;;;;;5023206;28;20178;-86
2022/11/11 11:06:17;;;;;;;10.83;9.93;;;9.00;99.90;;;;;;5022126;28;20228;-89
2022/11/11 11:08:54;;;;;;;9.30;8.40;;;9.10;99.90;;;;;;5031741;28;20257;-87
2022/11/11 11:11:34;;;;;;;13.13;9.57;;;9.20;99.90;;;;;;5036424;28;20673;-86
2022/11/11 11:14:05;;;;;;;14.43;9.90;;;9.10;99.90;;;;;;5036208;28;20242;-86
2022/11/11 11:16:38;;;;;;;12.73;10.27;;;8.80;99.90;;;;;;5035576;28;20193;-86
2022/11/11 11:19:13;;;;;;;10.53;9.50;;;8.70;99.90;;;;;;5037390;28;20215;-86
2022/11/11 11:21:53;;;;;;;11.20;10.13;;;9.00;99.90;;;;;;5037329;28;20236;-88
2022/11/11 11:24:23;;;;;;;13.43;12.17;;;8.90;99.90;;;;;;5033627;28;20169;-88
2022/11/11 11:26:51;;;;;;;11.70;10.70;;;8.80;99.90;;;;;;5031557;28;20206;-88
2022/11/11 11:29:43;;;;;;;12.60;11.47;;;8.80;99.90;;;;;;5038511;28;20178;-90
2022/11/11 11:32:16;;;;;;;12.03;10.93;;;8.80;99.90;;;;;;5035865;28;20212;-87
2022/11/11 11:34:43;;;;;;;11.73;10.73;;;8.80;99.90;;;;;;5041482;28;20217;-88
2022/11/11 11:37:08;;;;;;;11.30;10.30;;;9.10;99.90;;;;;;5036993;28;20230;-85
2022/11/11 11:39:36;;;;;;;13.70;12.40;;;9.30;99.90;;;;;;5040551;28;20654;-85
2022/11/11 11:42:02;;;;;;;14.47;12.07;;;9.40;99.90;;;;;;5035122;28;20219;-86
2022/11/11 11:44:33;;;;;;;12.07;10.83;;;9.30;99.90;;;;;;5031733;28;20193;-88
2022/11/11 11:47:26;;;;;;;11.93;10.83;;;9.10;99.90;;;;;;5018804;28;20229;-88
2022/11/11 11:50:04;;;;;;;13.33;12.03;;;9.00;99.90;;;;;;5044740;28;20185;-90
2022/11/11 11:52:47;;;;;;;12.27;11.17;;;8.80;99.90;;;;;;5046446;28;20184;-91
2022/11/11 11:55:24;;;;;;;13.73;12.33;;;8.90;99.90;;;;;;5047379;28;20174;-89
2022/11/11 11:57:54;;;;;;;11.63;10.53;;;9.00;99.90;;;;;;5042806;28;20200;-91
2022/11/11 12:00:44;;;;;;;13.60;12.40;;;9.10;99.90;;;;;;5050737;28;20181;-93
2022/11/11 12:03:42;;;;;;;13.90;11.63;;;9.30;99.90;;;;;;5049743;28;20186;-91
2022/11/11 12:06:26;;;;;;;13.63;12.33;;;9.50;99.90;;;;;;4983010;28;20212;-86
2022/11/11 12:09:16;;;;;;;14.70;13.40;;;9.00;99.90;;;;;;5026383;28;20201;-85
2022/11/11 12:11:55;;;;;;;15.03;13.57;;;8.80;99.90;;;;;;5040016;28;20208;-87
2022/11/11 12:14:55;;;;;;;20.93;18.83;;;8.60;99.90;;;;;;5026812;28;20182;-88
2022/11/11 12:17:24;;;;;;;18.07;16.30;;;8.90;99.90;;;;;;4999302;28;20209;-89
2022/11/11 12:19:52;;;;;;;19.07;15.03;;;9.10;99.90;;;;;;5021753;28;20206;-86
2022/11/11 12:22:18;;;;;;;14.60;13.23;;;9.30;99.90;;;;;;5038610;28;20224;-86
2022/11/11 12:25:16;;;;;;;14.53;13.13;;;9.20;99.90;;;;;;5015999;28;20197;-88
2022/11/11 12:27:59;;;;;;;13.27;12.07;;;9.20;99.90;;;;;;5032301;28;20204;-86
2022/11/11 12:30:28;;;;;;;12.53;11.43;;;9.30;99.90;;;;;;5034031;28;20205;-88
2022/11/11 12:33:31;;;;;;;16.20;12.90;;;9.30;99.90;;;;;;5020072;28;20195;-87
2022/11/11 12:36:10;;;;;;;13.87;12.67;;;9.40;99.90;;;;;;5012871;28;20214;-87
2022/11/11 12:38:44;;;;;;;16.90;15.30;;;9.50;99.90;;;;;;5024183;28;20195;-86
2022/11/11 12:41:22;;;;;;;17.13;15.43;;;9.60;99.90;;;;;;5041180;28;20214;-86
2022/11/11 12:44:00;;;;;;;13.43;12.20;;;9.70;99.90;;;;;;5039600;28;20268;-87
2022/11/11 12:46:49;;;;;;;13.23;12.10;;;9.90;99.90;;;;;;5022843;28;20258;-87
2022/11/11 12:49:21;;;;;;;12.23;11.03;;;9.90;99.90;;;;;;5013196;28;20222;-86
2022/11/11 12:51:55;;;;;;;11.23;10.23;;;9.70;99.90;;;;;;5035298;28;20210;-87
2022/11/11 12:54:33;;;;;;;11.20;10.30;;;9.50;99.90;;;;;;5010985;28;20186;-86
2022/11/11 12:57:15;;;;;;;11.07;9.97;;;9.50;99.90;;;;;;5040253;28;20201;-87
2022/11/11 13:00:03;;;;;;;12.17;10.90;;;9.40;99.90;;;;;;5029717;28;20655;-88
2022/11/11 13:02:44;;;;;;;10.77;9.87;;;9.30;99.90;;;;;;5020389;28;20199;-90
2022/11/11 13:05:42;;;;;;;13.57;12.17;;;9.30;99.90;;;;;;5036727;28;20225;-89
2022/11/11 13:08:29;;;;;;;12.83;11.73;;;9.60;99.90;;;;;;5032805;28;20230;-88
2022/11/11 13:11:01;;;;;;;11.67;10.67;;;9.70;99.90;;;;;;5036086;28;20248;-88
2022/11/11 13:13:50;;;;;;;11.37;10.37;;;9.50;99.90;;;;;;5023343;28;20186;-87
2022/11/11 13:16:21;;;;;;;11.10;10.10;;;9.50;99.90;;;;;;5041403;28;20292;-90
2022/11/11 13:19:14;;;;;;;10.30;9.30;;;9.60;99.90;;;;;;5042354;28;20191;-86
2022/11/11 13:21:53;;;;;;;11.20;10.10;;;9.70;99.90;;;;;;5029065;28;20198;-87
2022/11/11 13:24:22;;;;;;;13.37;12.17;;;9.80;99.90;;;;;;5024584;28;20213;-90
2022/11/11 13:26:58;;;;;;;13.77;12.47;;;9.80;99.90;;;;;;5041198;28;20248;-89
2022/11/11 13:29:46;;;;;;;13.03;11.73;;;9.60;99.90;;;;;;5041381;28;20199;-93
2022/11/11 13:32:17;;;;;;;13.40;12.10;;;9.80;99.90;;;;;;5042024;28;20244;-87
2022/11/11 13:34:43;;;;;;;13.63;12.30;;;9.70;99.90;;;;;;5042012;28;20188;-89
2022/11/11 13:37:23;;;;;;;16.87;12.80;;;9.80;99.90;;;;;;5042690;28;20309;-87
2022/11/11 13:39:51;;;;;;;13.63;12.27;;;9.60;99.90;;;;;;5042575;28;20685;-88
2022/11/11 13:42:30;;;;;;;14.00;12.70;;;9.40;99.90;;;;;;5026695;28;20226;-87
2022/11/11 13:44:59;;;;;;;13.90;12.60;;;9.30;99.90;;;;;;5043639;28;20193;-89
2022/11/11 13:47:33;;;;;;;13.97;12.77;;;9.30;99.90;;;;;;5043158;28;20280;-88
2022/11/11 13:50:07;;;;;;;18.50;14.10;;;9.20;99.90;;;;;;5040950;28;20189;-88
2022/11/11 13:52:40;;;;;;;16.03;13.73;;;9.10;99.90;;;;;;5040479;28;20193;-92
2022/11/11 13:55:44;;;;;;;16.50;14.23;;;9.00;99.90;;;;;;5039861;28;20228;-86
2022/11/11 13:58:26;;;;;;;31.27;14.67;;;8.90;99.90;;;;;;5042091;28;20205;-87
2022/11/11 14:01:00;;;;;;;16.80;13.20;;;9.00;99.90;;;;;;5040991;28;20252;-86
2022/11/11 14:03:25;;;;;;;13.87;12.47;;;8.90;99.90;;;;;;5040741;28;20186;-86
2022/11/11 14:06:13;;;;;;;13.40;12.20;;;8.90;99.90;;;;;;5025914;28;20220;-89
2022/11/11 14:08:44;;;;;;;29.23;14.63;;;8.90;99.90;;;;;;5040482;28;20260;-89
2022/11/11 14:11:31;;;;;;;13.73;12.33;;;9.00;99.90;;;;;;5040989;28;20221;-88
2022/11/11 14:14:18;;;;;;;13.80;12.40;;;9.20;99.90;;;;;;5040835;28;20190;-92
2022/11/11 14:16:45;;;;;;;13.93;12.53;;;9.30;99.90;;;;;;5041512;28;20254;-87
2022/11/11 14:19:20;;;;;;;13.13;11.83;;;9.50;99.90;;;;;;5040935;28;20196;-86
2022/11/11 14:21:55;;;;;;;14.13;12.80;;;9.50;99.90;;;;;;5039901;28;20221;-92
2022/11/11 14:24:39;;;;;;;16.30;14.10;;;9.50;99.90;;;;;;5039565;28;20551;-91
2022/11/11 14:27:07;;;;;;;17.47;14.43;;;9.30;99.90;;;;;;5041263;28;20241;-86
2022/11/11 14:29:37;;;;;;;16.63;14.23;;;9.20;99.90;;;;;;5022723;28;20197;-90